Flight Track Log - Related Links

Times and Time Zones

All times are in EDT time to prevent confusion due to time zone crossing. See the SKW6252 flight status page for this flight to view local times or setup timezone preferences in your user account.


Time Position Orientation Groundspeed Altitude Reporting Facility
EDT Latitude Longitude Course Direction KTS MPH feet Rate Location/Type
Fri 12:10:49 PM 39.9500 -104.6167 57° Northeast 233 268 8,100  Level Denver TRACON
Fri 12:11:55 PM 39.9500 -104.5167 90° East 283 326 10,000 905 Climbing Denver TRACON
Fri 12:12:00 PM 39.9305 -104.2071 73° East  Level FlightAware Approximate
Fri 12:12:55 PM 39.9500 -104.4000 90° East 360 414 10,000  Level Denver TRACON
Fri 12:13:00 PM 39.9653 -104.0560 73° East  Level FlightAware Approximate
Fri 12:13:21 PM 39.9450 -104.3428 96° East 360 414 11,100  Level Denver Center
Fri 12:14:00 PM 39.9876 -103.9035 79° East  Level FlightAware Approximate
Fri 12:14:23 PM 39.9331 -104.2100 97° East 343 395 14,500  Level Denver Center
Fri 12:15:00 PM 40.0188 -103.7519 79° East  Level FlightAware Approximate
Fri 12:15:25 PM 39.9486 -104.0892 80° East 343 395 16,700  Level Denver Center
Fri 12:16:27 PM 39.9789 -103.9611 73° East 343 395 18,700 1,887 Climbing Denver Center
Fri 12:17:29 PM 40.0053 -103.8369 74° East 357 411 20,600 1,694 Climbing Denver Center
Fri 12:18:31 PM 40.0322 -103.7058 75° East 351 404 22,200 1,403 Climbing Denver Center
Fri 12:19:33 PM 40.0522 -103.5772 78° East 374 430 23,500 1,548 Climbing Denver Center
Fri 12:20:35 PM 40.0772 -103.4236 78° East 387 445 25,400 1,355 Climbing Denver Center
Fri 12:21:37 PM 40.0947 -103.3131 78° East 391 450 26,300 1,161 Climbing Denver Center
Fri 12:22:39 PM 40.1242 -103.1311 78° East 401 461 27,800 1,306 Climbing Denver Center
Fri 12:23:41 PM 40.1469 -102.9917 78° East 407 468 29,000 1,210 Climbing Denver Center
Fri 12:24:43 PM 40.1719 -102.8269 79° East 413 475 30,300 871 Climbing Denver Center
Fri 12:25:45 PM 40.1906 -102.7075 78° East 419 482 30,800 677 Climbing Denver Center
Fri 12:26:47 PM 40.2208 -102.5094 79° East 436 502 31,700 919 Climbing Denver Center
Fri 12:27:49 PM 40.2444 -102.3586 78° East 442 509 32,700 629 Climbing Denver Center
Fri 12:28:51 PM 40.2719 -102.1842 78° East 439 505 33,000 144 Climbing Denver Center
Fri 12:29:54 PM 40.2936 -102.0325 79° East 442 509 33,000  Level Denver Center
Fri 12:30:56 PM 40.3203 -101.8556 79° East 444 511 33,000  Level Denver Center
Fri 12:31:58 PM 40.3431 -101.7047 79° East 442 509 33,000  Level Denver Center
Fri 12:33:12 PM 40.3672 -101.5292 80° East 440 506 33,000  Level Denver Center
Fri 12:34:26 PM 40.3964 -101.3558 77° East 436 502 33,000  Level Denver Center
Fri 12:35:29 PM 40.4350 -101.1600 75° East 435 501 33,000  Level Denver Center
Fri 12:36:31 PM 40.4681 -100.9894 76° East 435 501 33,000  Level Denver Center
Fri 12:37:33 PM 40.4956 -100.8433 76° East 434 499 33,000  Level Denver Center
Fri 12:38:35 PM 40.5278 -100.6711 76° East 438 504 33,000  Level Denver Center
Fri 12:39:37 PM 40.5564 -100.5242 76° East 438 504 33,000  Level Denver Center
Fri 12:40:39 PM 40.5886 -100.3508 76° East 440 506 33,000  Level Denver Center
Fri 12:41:41 PM 40.6156 -100.2008 77° East 441 507 33,000  Level Denver Center
Fri 12:42:55 PM 40.6486 -100.0278 76° East 438 504 33,000  Level Denver Center
Fri 12:43:57 PM 40.6753 -99.8803 77° East 436 502 33,000  Level Denver Center
Fri 12:44:59 PM 40.7106 -99.6864 76° East 436 502 33,000  Level Denver Center
Fri 12:46:01 PM 40.7383 -99.5311 77° East 435 501 33,000  Level Denver Center
Fri 12:47:04 PM 40.7656 -99.3758 77° East 434 499 33,000  Level Denver Center
Fri 12:48:05 PM 40.7931 -99.2217 77° East 434 499 33,000  Level Denver Center
Fri 12:49:03 PM 40.8189 -99.0703 77° East 436 502 33,000  Level Minneapolis Center
Fri 12:50:05 PM 40.8453 -98.9122 78° East 439 505 33,000  Level Minneapolis Center
Fri 12:51:07 PM 40.8778 -98.7225 77° East 440 506 33,000  Level Minneapolis Center
Fri 12:52:09 PM 40.9056 -98.5611 77° East 447 514 33,000  Level Minneapolis Center
Fri 12:53:11 PM 40.9325 -98.4044 77° East 449 517 33,000  Level Minneapolis Center
Fri 12:54:13 PM 40.9589 -98.2433 78° East 450 518 33,000  Level Minneapolis Center
Fri 12:55:15 PM 40.9908 -98.0492 78° East 452 520 33,000  Level Minneapolis Center
Fri 12:56:17 PM 41.0233 -97.8872 75° East 455 524 33,000  Level Minneapolis Center
Fri 12:57:19 PM 41.0611 -97.7267 73° East 456 525 33,000  Level Minneapolis Center
Fri 12:58:21 PM 41.0978 -97.5661 73° East 458 527 33,000  Level Minneapolis Center
Fri 12:59:24 PM 41.1333 -97.4050 74° East 456 525 33,000  Level Minneapolis Center
Fri 01:00:26 PM 41.1706 -97.2408 73° East 452 520 33,000  Level Minneapolis Center
Fri 01:01:28 PM 41.2050 -97.0819 74° East 449 517 33,000  Level Minneapolis Center
Fri 01:02:30 PM 41.2394 -96.9256 74° East 443 510 33,000  Level Minneapolis Center
Fri 01:03:32 PM 41.2806 -96.7353 74° East 446 513 33,000  Level Minneapolis Center
Fri 01:04:34 PM 41.3144 -96.5753 74° East 449 517 33,000  Level Minneapolis Center
Fri 01:05:36 PM 41.3506 -96.4133 73° East 455 524 33,000  Level Minneapolis Center
Fri 01:06:38 PM 41.3819 -96.2572 75° East 455 524 33,000  Level Minneapolis Center
Fri 01:07:40 PM 41.4175 -96.0953 74° East 456 525 33,000  Level Minneapolis Center
Fri 01:08:42 PM 41.4586 -95.8967 74° East 461 531 33,000  Level Minneapolis Center
Fri 01:09:44 PM 41.4922 -95.7308 75° East 463 533 33,000  Level Minneapolis Center
Fri 01:10:46 PM 41.5233 -95.5769 75° East 465 535 33,000  Level Minneapolis Center
Fri 01:11:48 PM 41.5583 -95.4094 74° East 467 537 33,000  Level Minneapolis Center
Fri 01:12:50 PM 41.6092 -95.2128 71° East 468 539 33,000  Level Minneapolis Center
Fri 01:13:52 PM 41.6506 -95.0478 71° East 468 539 33,000  Level Minneapolis Center
Fri 01:14:54 PM 41.6914 -94.8833 72° East 467 537 33,000  Level Minneapolis Center
Fri 01:15:57 PM 41.7331 -94.7172 71° East 471 542 33,000  Level Minneapolis Center
Fri 01:16:59 PM 41.7753 -94.5514 71° East 471 542 33,000  Level Minneapolis Center
Fri 01:18:01 PM 41.8158 -94.3842 72° East 473 544 33,000  Level Minneapolis Center
Fri 01:19:03 PM 41.8647 -94.1833 72° East 474 545 33,000  Level Minneapolis Center
Fri 01:20:05 PM 41.9047 -94.0150 72° East 474 545 33,000  Level Minneapolis Center
Fri 01:21:07 PM 41.9419 -93.8631 72° East 475 547 33,000  Level Minneapolis Center
Fri 01:22:09 PM 41.9836 -93.6881 72° East 478 550 33,000  Level Minneapolis Center
Fri 01:23:11 PM 42.0314 -93.4856 72° East 477 549 33,000  Level Minneapolis Center
Fri 01:24:13 PM 42.0706 -93.3175 73° East 477 549 33,000  Level Minneapolis Center
Fri 01:25:15 PM 42.1106 -93.1483 72° East 478 550 33,000  Level Minneapolis Center
Fri 01:26:17 PM 42.1494 -92.9772 73° East 481 554 33,000  Level Minneapolis Center
Fri 01:27:19 PM 42.1883 -92.8081 73° East 478 550 33,000  Level Minneapolis Center
Fri 01:28:21 PM 42.2356 -92.6033 73° East 480 552 33,000  Level Minneapolis Center
Fri 01:29:23 PM 42.2736 -92.4336 73° East 478 550 33,000  Level Minneapolis Center
Fri 01:30:25 PM 42.3117 -92.2628 73° East 479 551 33,000  Level Minneapolis Center
Fri 01:31:27 PM 42.3494 -92.0919 73° East 480 552 33,000  Level Minneapolis Center
Fri 01:31:59 PM 42.3719 -91.9883 74° East 483 556 33,000  Level Chicago Center
Fri 01:33:01 PM 42.4094 -91.8194 73° East 479 551 33,000  Level Chicago Center
Fri 01:34:04 PM 42.4456 -91.6497 74° East 480 552 33,000  Level Chicago Center
Fri 01:35:06 PM 42.4897 -91.4492 73° East 475 547 33,000  Level Chicago Center
Fri 01:36:08 PM 42.5253 -91.2806 74° East 475 547 33,000  Level Chicago Center
Fri 01:37:10 PM 42.5606 -91.1128 74° East 473 544 33,000  Level Chicago Center
Fri 01:38:12 PM 42.5967 -90.9425 74° East 476 548 33,000  Level Chicago Center
Fri 01:39:14 PM 42.6386 -90.7381 74° East 476 548 33,000  Level Chicago Center
Fri 01:40:16 PM 42.6747 -90.5681 74° East 476 548 33,000  Level Chicago Center
Fri 01:41:18 PM 42.7086 -90.3983 75° East 474 545 33,000  Level Chicago Center
Fri 01:42:20 PM 42.7422 -90.2269 75° East 474 545 33,000  Level Chicago Center
Fri 01:43:22 PM 42.7772 -90.0553 74° East 475 547 33,000  Level Chicago Center
Fri 01:44:24 PM 42.8136 -89.8714 75° East 470 541 33,000  Level Chicago Center
Fri 01:45:26 PM 42.8539 -89.6694 75° East 474 545 33,000  Level Chicago Center
Fri 01:46:28 PM 42.8869 -89.4967 75° East 473 544 33,000  Level Chicago Center
Fri 01:47:30 PM 42.9208 -89.3225 75° East 475 547 33,000  Level Chicago Center
Fri 01:48:32 PM 42.9550 -89.1464 75° East 481 554 33,000  Level Chicago Center
Fri 01:49:34 PM 42.9892 -88.9669 75° East 488 562 33,000  Level Chicago Center
Fri 01:50:36 PM 43.0286 -88.7544 76° East 495 570 33,000  Level Chicago Center
Fri 01:51:38 PM 43.0631 -88.5731 75° East 496 571 33,000  Level Chicago Center
Fri 01:52:40 PM 43.0961 -88.3925 76° East 495 570 33,000  Level Chicago Center
Fri 01:53:42 PM 43.1261 -88.2108 77° East 494 568 33,000  Level Chicago Center
Fri 01:54:44 PM 43.1522 -87.9981 80° East 490 564 33,000  Level Chicago Center
Fri 01:55:46 PM 43.1747 -87.8150 80° East 490 564 33,000  Level Chicago Center
Fri 01:56:47 PM 43.1964 -87.6325 81° East 488 562 33,000  Level Chicago Center
Fri 01:57:50 PM 43.2183 -87.4494 81° East 488 562 33,000  Level Chicago Center
Fri 01:58:51 PM 43.2439 -87.2450 80° East 489 563 33,000  Level Chicago Center
Fri 01:59:53 PM 43.2653 -87.0614 81° East 489 563 33,000  Level Chicago Center
Fri 02:00:55 PM 43.2850 -86.8800 81° East 485 558 33,000  Level Chicago Center
Fri 02:01:57 PM 43.3067 -86.6961 81° East 486 559 33,000 -484 Level Chicago Center
Fri 02:02:59 PM 43.3264 -86.5147 81° East 482 555 32,000 -919 Descending Chicago Center
Fri 02:04:01 PM 43.3475 -86.3300 81° East 486 559 31,100 -484 Descending Chicago Center
Fri 02:05:03 PM 43.3669 -86.1425 82° East 490 564 31,000 -97 Descending Chicago Center
Fri 02:06:05 PM 43.3775 -85.9492 86° East 504 580 30,900 -1,210 Descending Chicago Center
Fri 02:07:07 PM 43.3389 -85.7281 103° East 492 566 28,500 -2,129 Descending Chicago Center
Fri 02:08:09 PM 43.3064 -85.5456 104° East 489 563 26,500 -1,951 Descending Chicago Center
Fri 02:09:10 PM 43.2742 -85.3628 104° East 479 551 24,500 -1,736 Descending Cleveland Center
Fri 02:10:10 PM 43.2414 -85.1950 105° East 473 544 23,000 -750 Descending Cleveland Center
Fri 02:11:10 PM 43.2125 -85.0303 103° East 455 524 23,000  Level Cleveland Center
Fri 02:12:10 PM 43.1792 -84.8656 105° East 455 524 23,000 -450 Level Cleveland Center
Fri 02:13:10 PM 43.1528 -84.7242 104° East 422 486 22,100 -950 Descending Cleveland Center
Fri 02:14:10 PM 43.1264 -84.5858 105° East 390 449 21,100 -1,000 Descending Cleveland Center
Fri 02:15:10 PM 43.0997 -84.4506 105° East 376 433 20,100 -950 Descending Cleveland Center
Fri 02:16:10 PM 43.0767 -84.3297 105° East 366 421 19,200 -1,050 Descending Cleveland Center
Fri 02:17:10 PM 43.0517 -84.1975 104° East 366 421 18,000 -1,350 Descending Cleveland Center
Fri 02:18:10 PM 43.0267 -84.0653 104° East 361 415 16,500 -1,737 Descending Cleveland Center
Fri 02:18:26 PM 43.0178 -84.0164 104° East 347 399 15,800 -1,500 Descending Cleveland Center
Fri 02:19:10 PM 43.0033 -83.9419 105° East 349 402 15,000 -1,459 Descending Cleveland Center
Fri 02:19:40 PM 42.9889 -83.8617 104° East 335 386 14,000 -1,500 Descending Cleveland Center
Fri 02:20:10 PM 42.9692 -83.8150 120° Southeast 338 389 13,500 -1,475 Descending Cleveland Center
Fri 02:20:41 PM 42.9261 -83.7903 157° South 292 336 12,500 -1,400 Descending Cleveland Center
Fri 02:21:10 PM 42.8914 -83.7658 153° Southeast 285 328 12,100 -484 Descending Cleveland Center
Fri 02:21:43 PM 42.8525 -83.7439 158° South 294 338 12,000 -100 Descending Cleveland Center
Fri 02:22:10 PM 42.8175 -83.7253 159° South 285 328 12,000 -197 Level Cleveland Center
Fri 02:22:44 PM 42.7806 -83.7064 159° South 248 285 11,800 -500 Descending Cleveland Center
Fri 02:23:10 PM 42.7539 -83.6881 153° Southeast 277 319 11,500 -985 Descending Cleveland Center
Fri 02:23:51 PM 42.7128 -83.6633 156° South 240 276 10,700 -1,000 Descending Cleveland Center
Fri 02:24:10 PM 42.6903 -83.6539 163° South 259 298 10,500 -964 Descending Cleveland Center
Fri 02:24:47 PM 42.6531 -83.6436 169° South 245 282 9,800 -1,000 Descending Cleveland Center
Fri 02:25:10 PM 42.6261 -83.6308 161° South 248 285 9,500 -1,180 Descending Cleveland Center
Fri 02:25:48 PM 42.5850 -83.6147 164° South 242 278 8,600 -1,300 Descending Cleveland Center
Fri 02:26:10 PM 42.5622 -83.6081 168° South 243 280 8,200 -1,475 Descending Cleveland Center
Fri 02:26:49 PM 42.5300 -83.5669 137° Southeast 256 295 7,100 -1,500 Descending Cleveland Center
Fri 02:27:10 PM 42.5117 -83.5436 137° Southeast 238 274 6,700 -896 Descending Cleveland Center
Fri 02:27:56 PM 42.4775 -83.4914 132° Southeast 225 259 6,100 -416 Descending Cleveland Center
Fri 02:28:51 PM 42.4961 -83.4189 71° East 239 275 6,000 -466 Descending Cleveland Center
Fri 02:29:52 PM 42.5433 -83.3592 43° Northeast 232 267 5,200 -878 Descending Cleveland Center
Fri 02:30:54 PM 42.5722 -83.2869 61° Northeast 228 262 4,200 -558 Descending Cleveland Center
Fri 02:32:01 PM 42.5492 -83.2044 111° Southeast 207 238 4,000 -47 Descending Cleveland Center
Fri 02:33:02 PM 42.4997 -83.1797 160° South 186 214 4,100 49 Climbing Cleveland Center
Fri 02:34:03 PM 42.4514 -83.2003 197° South 182 209 4,100  Level Cleveland Center
Fri 02:35:04 PM 42.4108 -83.2322 210° Southwest 173 199 4,100 -51 Level Cleveland Center
Fri 02:36:00 PM 42.3706 -83.2617 208° Southwest 173 199 4,000 -107 Descending Cleveland Center

Login

Don't have an account? Register now (free) for customized features, flight alerts, and more!